Time;durP1;ratioP1;P1;durP2;ratioP2;P2;SDS_P1;SDS_P2;PMS_P1;PMS_P2;Temp;Humidity;BMP_temperature;BMP_pressure;BME280_temperature;BME280_humidity;BME280_pressure;Samples;Min_cycle;Max_cycle;Signal;HPM_P1;HPM_P2
2023/09/12 00:01:08;;;;;;;;;;;25.30;53.40;;;;;;5054200;28;19916;-67
2023/09/12 00:03:34;;;;;;;;;;;25.30;53.50;;;;;;5053759;28;20268;-68
2023/09/12 00:06:00;;;;;;;;;;;25.20;53.50;;;;;;5052592;28;19916;-67
2023/09/12 00:08:26;;;;;;;;;;;25.10;53.30;;;;;;5050933;28;20389;-67
2023/09/12 00:11:18;;;;;;;;;;;25.10;53.20;;;;;;5045068;28;20019;-67
2023/09/12 00:13:44;;;;;;;;;;;25.00;53.30;;;;;;5033567;28;19956;-68
2023/09/12 00:16:10;;;;;;;;;;;25.00;53.30;;;;;;5034241;28;19994;-66
2023/09/12 00:18:36;;;;;;;;;;;24.90;53.40;;;;;;5039869;28;19956;-67
2023/09/12 00:21:02;;;;;;;;;;;24.80;53.60;;;;;;5040153;28;19956;-66
2023/09/12 00:23:28;;;;;;;;;;;24.80;53.70;;;;;;5034811;28;19914;-66
2023/09/12 00:25:53;;;;;;;;;;;24.80;54.00;;;;;;5054352;28;19919;-66
2023/09/12 00:28:19;;;;;;;;;;;24.80;54.20;;;;;;5053957;28;20419;-66
2023/09/12 00:30:45;;;;;;;;;;;24.80;54.00;;;;;;5052818;28;19954;-67
2023/09/12 00:33:10;;;;;;;;;;;24.80;53.90;;;;;;5049141;28;19920;-66
2023/09/12 00:35:36;;;;;;;;;;;24.80;53.80;;;;;;5036461;28;20035;-66
2023/09/12 00:38:01;;;;;;;;;;;24.80;53.90;;;;;;5044512;28;19930;-66
2023/09/12 00:40:27;;;;;;;;;;;24.90;54.00;;;;;;5053756;28;19917;-67
2023/09/12 00:42:52;;;;;;;;;;;24.90;54.00;;;;;;5053235;28;19913;-67
2023/09/12 00:45:18;;;;;;;;;;;25.00;53.90;;;;;;5048863;28;20363;-67
2023/09/12 00:47:44;;;;;;;;;;;25.00;53.90;;;;;;5045174;28;19917;-67
2023/09/12 00:50:10;;;;;;;;;;;25.00;53.70;;;;;;5048915;28;19917;-67
2023/09/12 00:52:36;;;;;;;;;;;25.10;53.70;;;;;;5039739;28;19913;-67
2023/09/12 00:55:02;;;;;;;;;;;25.10;53.60;;;;;;5034024;28;20323;-67
2023/09/12 00:57:28;;;;;;;;;;;25.10;53.50;;;;;;5032996;28;19917;-67
2023/09/12 00:59:55;;;;;;;;;;;25.10;53.60;;;;;;5032925;28;19925;-67
2023/09/12 01:02:21;;;;;;;;;;;25.20;53.60;;;;;;5033478;28;19913;-66
2023/09/12 01:04:47;;;;;;;;;;;25.20;53.60;;;;;;5033273;28;19975;-66
2023/09/12 01:07:12;;;;;;;;;;;25.20;53.60;;;;;;5033264;28;19913;-66
2023/09/12 01:09:38;;;;;;;;;;;25.20;53.80;;;;;;5032720;28;20377;-67
2023/09/12 01:12:03;;;;;;;;;;;25.30;54.00;;;;;;5033241;28;19917;-67
2023/09/12 01:14:29;;;;;;;;;;;25.30;54.50;;;;;;5037205;28;19971;-66
2023/09/12 01:16:55;;;;;;;;;;;25.20;55.00;;;;;;5039881;28;19917;-67
2023/09/12 01:19:20;;;;;;;;;;;25.20;55.30;;;;;;5033077;28;19921;-67
2023/09/12 01:22:05;;;;;;;;;;;25.20;55.30;;;;;;5034134;28;20296;-67
2023/09/12 01:24:33;;;;;;;;;;;25.20;55.80;;;;;;5033202;28;19917;-66
2023/09/12 01:27:13;;;;;;;;;;;25.10;56.10;;;;;;5032890;28;20272;-66
2023/09/12 01:29:39;;;;;;;;;;;25.00;56.60;;;;;;5032602;28;19913;-67
2023/09/12 01:32:05;;;;;;;;;;;25.00;57.10;;;;;;5032961;28;19913;-66
2023/09/12 01:34:31;;;;;;;;;;;25.00;57.70;;;;;;5040682;28;19917;-66
2023/09/12 01:36:56;;;;;;;;;;;24.80;57.90;;;;;;5051366;28;20431;-66
2023/09/12 01:39:22;;;;;;;;;;;24.80;57.70;;;;;;5052388;28;19968;-66
2023/09/12 01:41:47;;;;;;;;;;;24.80;57.80;;;;;;5052462;28;19917;-66
2023/09/12 01:44:14;;;;;;;;;;;24.70;58.10;;;;;;5052268;28;19948;-66
2023/09/12 01:46:39;;;;;;;;;;;24.70;58.20;;;;;;5035545;28;19913;-66
2023/09/12 01:49:06;;;;;;;;;;;24.70;58.60;;;;;;5032432;28;19920;-66
2023/09/12 01:51:32;;;;;;;;;;;24.70;58.40;;;;;;5032447;28;19953;-66
2023/09/12 01:53:58;;;;;;;;;;;24.70;58.30;;;;;;5032719;28;19917;-67
2023/09/12 01:56:23;;;;;;;;;;;24.70;58.40;;;;;;5032445;28;19920;-67
2023/09/12 01:58:49;;;;;;;;;;;24.80;58.30;;;;;;5032358;28;19987;-67
2023/09/12 02:01:14;;;;;;;;;;;24.80;58.00;;;;;;5038820;28;19917;-67
2023/09/12 02:03:40;;;;;;;;;;;24.80;57.80;;;;;;5052161;28;19921;-67
2023/09/12 02:06:05;;;;;;;;;;;24.90;57.50;;;;;;5052353;28;20363;-67
2023/09/12 02:08:31;;;;;;;;;;;24.90;57.70;;;;;;5052088;28;20470;-66
2023/09/12 02:10:56;;;;;;;;;;;24.90;57.30;;;;;;5051651;28;20011;-67
2023/09/12 02:13:21;;;;;;;;;;;24.90;57.20;;;;;;5052210;28;20380;-66
2023/09/12 02:15:47;;;;;;;;;;;24.80;57.10;;;;;;5050655;28;19909;-66
2023/09/12 02:18:12;;;;;;;;;;;24.80;56.90;;;;;;5051098;28;19916;-66
2023/09/12 02:20:39;;;;;;;;;;;24.80;56.90;;;;;;5050458;28;19913;-67
2023/09/12 02:23:04;;;;;;;;;;;24.70;56.80;;;;;;5050289;28;19952;-67
2023/09/12 02:25:30;;;;;;;;;;;24.70;56.80;;;;;;5049697;28;19960;-67
2023/09/12 02:27:55;;;;;;;;;;;24.70;57.00;;;;;;5050699;28;19909;-67
2023/09/12 02:30:21;;;;;;;;;;;24.70;57.20;;;;;;5047568;28;19917;-66
2023/09/12 02:32:46;;;;;;;;;;;24.70;57.40;;;;;;5031859;28;19913;-67
2023/09/12 02:35:11;;;;;;;;;;;24.80;57.60;;;;;;5042515;28;19929;-67
2023/09/12 02:37:37;;;;;;;;;;;24.80;58.20;;;;;;5031648;28;20011;-67
2023/09/12 02:40:05;;;;;;;;;;;24.80;58.80;;;;;;5031601;28;20130;-67
2023/09/12 02:42:30;;;;;;;;;;;24.90;59.20;;;;;;5032351;28;19977;-67
2023/09/12 02:44:56;;;;;;;;;;;24.90;59.60;;;;;;5032030;28;19924;-67
2023/09/12 02:47:21;;;;;;;;;;;24.90;59.70;;;;;;5031909;28;19917;-68
2023/09/12 02:49:47;;;;;;;;;;;25.00;60.00;;;;;;5032065;28;19941;-67
2023/09/12 02:52:12;;;;;;;;;;;25.00;60.20;;;;;;5030685;28;19920;-68
2023/09/12 02:54:38;;;;;;;;;;;25.00;60.30;;;;;;5031739;28;20092;-67
2023/09/12 02:57:03;;;;;;;;;;;25.00;60.30;;;;;;5030604;28;19917;-67
2023/09/12 02:59:29;;;;;;;;;;;25.00;60.50;;;;;;5031668;28;19917;-67
2023/09/12 03:01:54;;;;;;;;;;;25.10;60.70;;;;;;5031833;28;19913;-67
2023/09/12 03:04:20;;;;;;;;;;;25.00;60.70;;;;;;5043155;28;19924;-68
2023/09/12 03:06:45;;;;;;;;;;;25.00;60.70;;;;;;5050514;28;19912;-67
2023/09/12 03:09:11;;;;;;;;;;;24.90;60.90;;;;;;5049389;28;20400;-68
2023/09/12 03:11:37;;;;;;;;;;;24.90;61.40;;;;;;5040226;28;20372;-68
2023/09/12 03:14:02;;;;;;;;;;;24.80;61.70;;;;;;5050038;28;19916;-68
2023/09/12 03:16:28;;;;;;;;;;;24.70;61.80;;;;;;5037686;28;19913;-68
2023/09/12 03:18:53;;;;;;;;;;;24.70;62.00;;;;;;5031466;28;19917;-67
2023/09/12 03:21:18;;;;;;;;;;;24.70;61.80;;;;;;5032781;28;20438;-66
2023/09/12 03:23:44;;;;;;;;;;;24.70;61.80;;;;;;5035379;28;20393;-66
2023/09/12 03:26:09;;;;;;;;;;;24.70;61.80;;;;;;5035403;28;20271;-66
2023/09/12 03:28:35;;;;;;;;;;;24.70;61.70;;;;;;5035319;28;19920;-67
2023/09/12 03:31:07;;;;;;;;;;;24.80;62.00;;;;;;5040181;28;19984;-67
2023/09/12 03:33:33;;;;;;;;;;;24.70;61.70;;;;;;5041845;28;19921;-66
2023/09/12 03:35:58;;;;;;;;;;;24.70;61.40;;;;;;5038108;28;20277;-66
2023/09/12 03:38:23;;;;;;;;;;;24.70;61.10;;;;;;5042418;28;20338;-67
2023/09/12 03:40:49;;;;;;;;;;;24.70;61.00;;;;;;5055223;28;19912;-66
2023/09/12 03:43:14;;;;;;;;;;;24.70;61.10;;;;;;5055127;28;19956;-66
2023/09/12 03:45:40;;;;;;;;;;;24.60;60.90;;;;;;5036578;28;19909;-66
2023/09/12 03:48:06;;;;;;;;;;;24.60;60.70;;;;;;5035158;28;19913;-66
2023/09/12 03:50:31;;;;;;;;;;;24.60;60.80;;;;;;5034859;28;19924;-66
2023/09/12 03:52:57;;;;;;;;;;;24.60;60.60;;;;;;5035343;28;19909;-67
2023/09/12 03:55:22;;;;;;;;;;;24.60;60.70;;;;;;5034637;28;19928;-66
2023/09/12 03:57:48;;;;;;;;;;;24.60;60.70;;;;;;5034977;28;19965;-66
2023/09/12 04:00:13;;;;;;;;;;;24.70;60.70;;;;;;5034835;28;20024;-67
2023/09/12 04:02:39;;;;;;;;;;;24.70;60.70;;;;;;5035136;28;19963;-66
2023/09/12 04:05:04;;;;;;;;;;;24.70;60.80;;;;;;5040295;28;20433;-66
2023/09/12 04:07:30;;;;;;;;;;;24.80;60.60;;;;;;5044988;28;20451;-67
2023/09/12 04:09:55;;;;;;;;;;;24.80;60.80;;;;;;5035894;28;19921;-68
2023/09/12 04:12:21;;;;;;;;;;;24.70;60.80;;;;;;5045331;28;20368;-68
2023/09/12 04:14:49;;;;;;;;;;;24.80;60.70;;;;;;5049597;28;19925;-68
2023/09/12 04:17:14;;;;;;;;;;;24.80;60.60;;;;;;5041909;28;20356;-68
2023/09/12 04:19:40;;;;;;;;;;;24.70;60.90;;;;;;5054680;28;19917;-68
2023/09/12 04:22:05;;;;;;;;;;;24.60;61.20;;;;;;5041373;28;19913;-68
2023/09/12 04:24:31;;;;;;;;;;;24.50;61.50;;;;;;5035011;28;19951;-68
2023/09/12 04:26:56;;;;;;;;;;;24.40;61.70;;;;;;5033677;28;19967;-67
2023/09/12 04:29:21;;;;;;;;;;;24.40;61.80;;;;;;5034763;28;19989;-67
2023/09/12 04:31:47;;;;;;;;;;;24.30;61.70;;;;;;5034271;28;19917;-67
2023/09/12 04:34:12;;;;;;;;;;;24.30;61.90;;;;;;5047430;28;19912;-67
2023/09/12 04:36:38;;;;;;;;;;;24.40;61.80;;;;;;5054628;28;19913;-67
2023/09/12 04:39:05;;;;;;;;;;;24.40;61.70;;;;;;5053212;28;19917;-67
2023/09/12 04:41:30;;;;;;;;;;;24.40;61.70;;;;;;5054421;28;20015;-66
2023/09/12 04:43:56;;;;;;;;;;;24.40;61.70;;;;;;5052467;28;19956;-66
2023/09/12 04:46:22;;;;;;;;;;;24.30;61.50;;;;;;5052160;28;19921;-66
2023/09/12 04:48:47;;;;;;;;;;;24.40;61.50;;;;;;5053415;28;19912;-74
2023/09/12 04:51:13;;;;;;;;;;;24.30;62.70;;;;;;5053042;28;19912;-71
2023/09/12 04:53:40;;;;;;;;;;;24.00;64.30;;;;;;5052894;28;19913;-67
2023/09/12 04:56:06;;;;;;;;;;;23.80;65.40;;;;;;5053236;28;20371;-68
2023/09/12 04:58:31;;;;;;;;;;;23.60;69.10;;;;;;5052736;28;20368;-70
2023/09/12 05:00:57;;;;;;;;;;;23.40;69.70;;;;;;5052617;28;19920;-68
2023/09/12 05:03:22;;;;;;;;;;;23.30;69.80;;;;;;5052712;28;19962;-69
2023/09/12 05:05:49;;;;;;;;;;;23.10;70.20;;;;;;5052443;28;19916;-69
2023/09/12 05:08:15;;;;;;;;;;;23.00;70.30;;;;;;5045632;28;20050;-68
2023/09/12 05:10:41;;;;;;;;;;;22.80;70.40;;;;;;5039959;28;19917;-68
2023/09/12 05:13:06;;;;;;;;;;;22.70;70.90;;;;;;5033045;28;19917;-67
2023/09/12 05:15:31;;;;;;;;;;;22.70;71.40;;;;;;5032760;28;19922;-66
2023/09/12 05:17:57;;;;;;;;;;;22.60;71.50;;;;;;5033055;28;19924;-66
2023/09/12 05:20:22;;;;;;;;;;;22.70;71.80;;;;;;5031297;28;20292;-66
2023/09/12 05:22:48;;;;;;;;;;;22.60;71.80;;;;;;5037097;28;19913;-66
2023/09/12 05:25:13;;;;;;;;;;;22.60;71.70;;;;;;5040010;28;19913;-65
2023/09/12 05:27:39;;;;;;;;;;;22.50;71.70;;;;;;5053070;28;19920;-65
2023/09/12 05:30:05;;;;;;;;;;;22.50;71.70;;;;;;5042631;28;20624;-66
2023/09/12 05:32:30;;;;;;;;;;;22.40;71.80;;;;;;5032758;28;20011;-69
2023/09/12 05:34:56;;;;;;;;;;;22.30;72.00;;;;;;5032306;28;19920;-67
2023/09/12 05:37:21;;;;;;;;;;;22.30;72.10;;;;;;5043066;28;20376;-70
2023/09/12 05:39:47;;;;;;;;;;;22.30;72.20;;;;;;5050488;28;19921;-70
2023/09/12 05:42:14;;;;;;;;;;;22.30;72.30;;;;;;5052097;28;19987;-67
2023/09/12 05:44:40;;;;;;;;;;;22.30;72.30;;;;;;5050640;28;19921;-70
2023/09/12 05:47:06;;;;;;;;;;;22.30;72.20;;;;;;5052242;28;19908;-67
2023/09/12 05:49:34;;;;;;;;;;;22.20;72.10;;;;;;5050411;28;20088;-67
2023/09/12 05:51:59;;;;;;;;;;;22.20;72.50;;;;;;5052223;28;20348;-67
2023/09/12 05:54:24;;;;;;;;;;;22.30;72.80;;;;;;5051975;28;19920;-67
2023/09/12 05:56:51;;;;;;;;;;;22.20;72.70;;;;;;5040108;28;20368;-68
2023/09/12 05:59:16;;;;;;;;;;;22.30;72.80;;;;;;5041976;28;20319;-67
2023/09/12 06:01:42;;;;;;;;;;;22.30;72.70;;;;;;5040662;28;19920;-68
2023/09/12 06:04:07;;;;;;;;;;;22.30;72.60;;;;;;5030647;28;19913;-66
2023/09/12 06:06:33;;;;;;;;;;;22.30;72.80;;;;;;5037047;28;19913;-67
2023/09/12 06:08:58;;;;;;;;;;;22.30;72.70;;;;;;5046049;28;20272;-66
2023/09/12 06:11:24;;;;;;;;;;;22.30;72.70;;;;;;5037402;28;19912;-66
2023/09/12 06:13:49;;;;;;;;;;;22.30;72.80;;;;;;5051394;28;19920;-67
2023/09/12 06:16:15;;;;;;;;;;;22.30;72.80;;;;;;5051477;28;19913;-67
2023/09/12 06:18:40;;;;;;;;;;;22.30;72.80;;;;;;5030299;28;20427;-66
2023/09/12 06:21:08;;;;;;;;;;;22.30;72.90;;;;;;5031287;28;19917;-66
2023/09/12 06:23:34;;;;;;;;;;;22.30;72.90;;;;;;5031637;28;19917;-68
2023/09/12 06:25:59;;;;;;;;;;;22.30;72.60;;;;;;5031026;28;20004;-67
2023/09/12 06:28:28;;;;;;;;;;;22.30;73.00;;;;;;5029086;28;19917;-67
2023/09/12 06:30:53;;;;;;;;;;;22.30;73.00;;;;;;5031568;28;19913;-68
2023/09/12 06:33:19;;;;;;;;;;;22.40;73.20;;;;;;5051327;28;19917;-66
2023/09/12 06:35:48;;;;;;;;;;;22.40;73.20;;;;;;5032701;28;19956;-67
2023/09/12 06:38:13;;;;;;;;;;;22.30;73.00;;;;;;5037321;28;19917;-66
2023/09/12 06:40:38;;;;;;;;;;;22.40;73.00;;;;;;5048978;28;19966;-67
2023/09/12 06:43:04;;;;;;;;;;;22.40;73.00;;;;;;5050691;28;19909;-67
2023/09/12 06:45:32;;;;;;;;;;;22.50;73.00;;;;;;5050956;28;19917;-67
2023/09/12 06:47:58;;;;;;;;;;;22.50;72.90;;;;;;5044907;28;20321;-68
2023/09/12 06:50:23;;;;;;;;;;;22.50;72.90;;;;;;5051258;28;19917;-67
2023/09/12 06:52:49;;;;;;;;;;;22.50;72.90;;;;;;5051255;28;19952;-68
2023/09/12 06:55:14;;;;;;;;;;;22.50;73.00;;;;;;5051105;28;20387;-69
2023/09/12 06:57:40;;;;;;;;;;;22.50;73.10;;;;;;5047814;28;20340;-67
2023/09/12 07:00:07;;;;;;;;;;;22.60;73.10;;;;;;5055065;28;19921;-66
2023/09/12 07:02:32;;;;;;;;;;;22.50;73.10;;;;;;5054065;28;19940;-66
2023/09/12 07:04:58;;;;;;;;;;;22.50;73.00;;;;;;5035542;28;19917;-66
2023/09/12 07:07:24;;;;;;;;;;;22.50;72.70;;;;;;5039906;28;20348;-65
2023/09/12 07:09:49;;;;;;;;;;;22.50;72.70;;;;;;5035168;28;20318;-67
2023/09/12 07:12:15;;;;;;;;;;;22.50;72.80;;;;;;5035089;28;20004;-68
2023/09/12 07:14:40;;;;;;;;;;;22.50;73.10;;;;;;5044792;28;19917;-69
2023/09/12 07:17:06;;;;;;;;;;;22.50;73.30;;;;;;5046649;28;20354;-69
2023/09/12 07:19:32;;;;;;;;;;;22.50;73.00;;;;;;5043736;28;20252;-69
2023/09/12 07:21:57;;;;;;;;;;;22.40;73.10;;;;;;5042546;28;20345;-70
2023/09/12 07:24:26;;;;;;;;;;;22.40;72.90;;;;;;5034175;28;19917;-70
2023/09/12 07:26:52;;;;;;;;;;;22.40;72.80;;;;;;5042301;28;20013;-70
2023/09/12 07:29:17;;;;;;;;;;;22.40;72.90;;;;;;5044598;28;20443;-68
2023/09/12 07:31:43;;;;;;;;;;;22.40;73.00;;;;;;5053249;28;20367;-69
2023/09/12 07:34:09;;;;;;;;;;;22.30;72.90;;;;;;5054830;28;19913;-69
2023/09/12 07:36:34;;;;;;;;;;;22.30;73.00;;;;;;5042936;28;20390;-70
2023/09/12 07:39:03;;;;;;;;;;;22.20;72.90;;;;;;5043027;28;19913;-69
2023/09/12 07:41:29;;;;;;;;;;;22.20;73.10;;;;;;5046115;28;19964;-70
2023/09/12 07:43:55;;;;;;;;;;;22.20;73.20;;;;;;5032117;28;20320;-69
2023/09/12 07:46:20;;;;;;;;;;;22.20;73.50;;;;;;5039192;28;19913;-69
2023/09/12 07:48:46;;;;;;;;;;;22.10;73.50;;;;;;5032659;28;19987;-69
2023/09/12 07:51:12;;;;;;;;;;;22.00;73.20;;;;;;5035810;28;19925;-70
2023/09/12 07:53:37;;;;;;;;;;;22.00;73.30;;;;;;5054456;28;20372;-69
2023/09/12 07:56:03;;;;;;;;;;;22.00;73.60;;;;;;5055531;28;20019;-70
2023/09/12 07:58:28;;;;;;;;;;;22.10;73.80;;;;;;5043945;28;19912;-70
2023/09/12 08:00:54;;;;;;;;;;;22.10;73.70;;;;;;5050274;28;19921;-69
2023/09/12 08:03:19;;;;;;;;;;;22.10;73.60;;;;;;5050756;28;19920;-68
2023/09/12 08:05:53;;;;;;;;;;;22.10;73.60;;;;;;5053771;28;19983;-71
2023/09/12 08:08:19;;;;;;;;;;;22.10;73.70;;;;;;5034998;28;20361;-69
2023/09/12 08:10:46;;;;;;;;;;;22.10;73.60;;;;;;5053571;28;19921;-69
2023/09/12 08:13:11;;;;;;;;;;;22.00;73.40;;;;;;5052816;28;20339;-69
2023/09/12 08:15:37;;;;;;;;;;;22.00;73.60;;;;;;5044338;28;19916;-70
2023/09/12 08:18:02;;;;;;;;;;;21.90;73.70;;;;;;5046004;28;19967;-69
2023/09/12 08:20:28;;;;;;;;;;;21.90;73.60;;;;;;5043339;28;19928;-66
2023/09/12 08:22:53;;;;;;;;;;;21.80;73.80;;;;;;5041018;28;19917;-68
2023/09/12 08:25:19;;;;;;;;;;;21.80;74.00;;;;;;5042371;28;19917;-69
2023/09/12 08:27:44;;;;;;;;;;;21.80;74.30;;;;;;5034630;28;19910;-70
2023/09/12 08:30:10;;;;;;;;;;;21.80;74.40;;;;;;5050702;28;20401;-70
2023/09/12 08:32:36;;;;;;;;;;;21.90;74.70;;;;;;5045283;28;20007;-71
2023/09/12 08:35:03;;;;;;;;;;;21.90;74.60;;;;;;5047573;28;19913;-70
2023/09/12 08:37:28;;;;;;;;;;;22.00;74.70;;;;;;5041102;28;19936;-68
2023/09/12 08:39:56;;;;;;;;;;;22.00;74.70;;;;;;5039014;28;19920;-68
2023/09/12 08:42:22;;;;;;;;;;;22.10;74.60;;;;;;5046858;28;19924;-70
2023/09/12 08:44:47;;;;;;;;;;;22.10;74.60;;;;;;5051314;28;19913;-70
2023/09/12 08:47:13;;;;;;;;;;;22.10;74.50;;;;;;5043693;28;20428;-71
2023/09/12 08:49:42;;;;;;;;;;;22.10;74.40;;;;;;5037264;28;19913;-71
2023/09/12 08:52:07;;;;;;;;;;;22.10;74.50;;;;;;5052739;28;19956;-70
2023/09/12 08:54:33;;;;;;;;;;;22.20;74.60;;;;;;5048750;28;19971;-70
2023/09/12 08:57:00;;;;;;;;;;;22.20;74.50;;;;;;5037122;28;19925;-70
2023/09/12 08:59:26;;;;;;;;;;;22.20;74.40;;;;;;5040826;28;20012;-68
2023/09/12 09:01:52;;;;;;;;;;;22.20;74.30;;;;;;5040100;28;20079;-70
2023/09/12 09:04:19;;;;;;;;;;;22.20;74.30;;;;;;5038240;28;20376;-70
2023/09/12 09:06:45;;;;;;;;;;;22.30;74.30;;;;;;5033866;28;19921;-71
2023/09/12 09:09:11;;;;;;;;;;;22.30;74.30;;;;;;5047756;28;19916;-70
2023/09/12 09:11:36;;;;;;;;;;;22.20;74.50;;;;;;5045874;28;20290;-70
2023/09/12 09:14:03;;;;;;;;;;;22.30;74.50;;;;;;5052743;28;19986;-70
2023/09/12 09:16:28;;;;;;;;;;;22.30;74.50;;;;;;5035296;28;19918;-70
2023/09/12 09:18:57;;;;;;;;;;;22.30;74.30;;;;;;5028736;28;19917;-72
2023/09/12 09:21:25;;;;;;;;;;;22.30;74.20;;;;;;5043152;28;19924;-69
2023/09/12 09:23:51;;;;;;;;;;;22.30;74.30;;;;;;5035483;28;19924;-68
2023/09/12 09:26:16;;;;;;;;;;;22.30;74.50;;;;;;5036732;28;20268;-70
2023/09/12 09:28:42;;;;;;;;;;;22.30;74.50;;;;;;5032759;28;19968;-69
2023/09/12 09:31:12;;;;;;;;;;;22.30;74.50;;;;;;5038914;28;20402;-68
2023/09/12 09:33:38;;;;;;;;;;;22.40;74.60;;;;;;5052469;28;20401;-67
2023/09/12 09:36:05;;;;;;;;;;;22.50;74.60;;;;;;5036270;28;20334;-67
2023/09/12 09:38:30;;;;;;;;;;;22.50;74.50;;;;;;5033211;28;19917;-66
2023/09/12 09:40:56;;;;;;;;;;;22.60;74.60;;;;;;5033780;28;19971;-66
2023/09/12 09:43:21;;;;;;;;;;;22.60;74.20;;;;;;5052323;28;19923;-67
2023/09/12 09:45:47;;;;;;;;;;;22.60;74.20;;;;;;5034158;28;19918;-71
2023/09/12 09:48:19;;;;;;;;;;;22.60;74.30;;;;;;5035339;28;19920;-69
2023/09/12 09:50:45;;;;;;;;;;;22.50;74.10;;;;;;5037856;28;20058;-68
2023/09/12 09:53:10;;;;;;;;;;;22.50;74.10;;;;;;5070502;28;20431;-69
2023/09/12 09:55:36;;;;;;;;;;;22.50;74.20;;;;;;5063120;28;19939;-71
2023/09/12 09:58:02;;;;;;;;;;;22.50;74.30;;;;;;5037427;28;19963;-70
2023/09/12 10:00:33;;;;;;;;;;;22.50;74.40;;;;;;5039303;28;21701;-67
2023/09/12 10:02:59;;;;;;;;;;;22.50;74.30;;;;;;5049543;28;19916;-68
2023/09/12 10:05:24;;;;;;;;;;;22.50;74.20;;;;;;5031762;28;20304;-68
2023/09/12 10:07:50;;;;;;;;;;;22.50;74.30;;;;;;5033640;28;19917;-67
2023/09/12 10:10:16;;;;;;;;;;;22.60;74.30;;;;;;5030369;28;19931;-70
2023/09/12 10:12:45;;;;;;;;;;;22.60;74.20;;;;;;5030294;28;19949;-71
2023/09/12 10:15:11;;;;;;;;;;;22.50;73.80;;;;;;5031614;28;19928;-66
2023/09/12 10:17:39;;;;;;;;;;;22.40;74.20;;;;;;5036961;28;20423;-67
2023/09/12 10:20:09;;;;;;;;;;;22.50;74.30;;;;;;5031788;28;20359;-70
2023/09/12 10:22:47;;;;;;;;;;;22.50;74.30;;;;;;5029757;28;19960;-69
2023/09/12 10:25:13;;;;;;;;;;;22.40;74.30;;;;;;5031347;28;20478;-71
2023/09/12 10:27:38;;;;;;;;;;;22.50;74.30;;;;;;5042362;28;19913;-68
2023/09/12 10:30:04;;;;;;;;;;;22.50;74.40;;;;;;5031594;28;19917;-68
2023/09/12 10:32:30;;;;;;;;;;;22.50;74.50;;;;;;5033450;28;20277;-68
2023/09/12 10:34:58;;;;;;;;;;;22.50;74.40;;;;;;5036362;28;19935;-68
2023/09/12 10:37:25;;;;;;;;;;;22.50;74.30;;;;;;5034867;28;20022;-68
2023/09/12 10:39:52;;;;;;;;;;;22.50;74.10;;;;;;5043709;28;20031;-69
2023/09/12 10:42:19;;;;;;;;;;;22.40;74.00;;;;;;5038778;28;19917;-68
2023/09/12 10:44:45;;;;;;;;;;;22.50;74.00;;;;;;5033791;28;20283;-70
2023/09/12 10:47:11;;;;;;;;;;;22.40;74.00;;;;;;5032407;28;20347;-69
2023/09/12 10:49:37;;;;;;;;;;;22.40;74.10;;;;;;5040988;28;19919;-67
2023/09/12 10:52:03;;;;;;;;;;;22.40;74.10;;;;;;5042291;28;19927;-67
2023/09/12 10:54:38;;;;;;;;;;;22.40;74.10;;;;;;5051579;28;19917;-67
2023/09/12 10:57:07;;;;;;;;;;;22.40;74.20;;;;;;5042180;28;19921;-68
2023/09/12 10:59:36;;;;;;;;;;;22.40;74.30;;;;;;5044242;28;19995;-68
2023/09/12 11:02:41;;;;;;;;;;;22.40;74.30;;;;;;5049087;28;20095;-68
2023/09/12 11:05:27;;;;;;;;;;;22.50;74.30;;;;;;4979696;28;19917;-67
2023/09/12 11:07:56;;;;;;;;;;;22.50;74.40;;;;;;4976486;28;19932;-67
2023/09/12 11:10:22;;;;;;;;;;;22.60;74.40;;;;;;5015318;28;19921;-67
2023/09/12 11:12:51;;;;;;;;;;;22.70;74.50;;;;;;5048172;28;19915;-67
2023/09/12 11:15:18;;;;;;;;;;;22.80;74.60;;;;;;5040312;28;19913;-67
2023/09/12 11:17:44;;;;;;;;;;;23.00;74.70;;;;;;5030526;28;20390;-67
2023/09/12 11:20:11;;;;;;;;;;;23.20;74.90;;;;;;5030538;28;20004;-66
2023/09/12 11:22:40;;;;;;;;;;;23.40;74.90;;;;;;5030475;28;19913;-67
2023/09/12 11:25:23;;;;;;;;;;;23.60;75.00;;;;;;5031561;28;19913;-68
2023/09/12 11:27:52;;;;;;;;;;;23.90;75.10;;;;;;5029188;28;19964;-67
2023/09/12 11:30:18;;;;;;;;;;;24.20;75.50;;;;;;5030763;28;20273;-68
2023/09/12 11:32:44;;;;;;;;;;;24.60;76.00;;;;;;5030357;28;19913;-68
2023/09/12 11:35:10;;;;;;;;;;;25.10;76.30;;;;;;5034578;28;19944;-67
2023/09/12 11:37:36;;;;;;;;;;;25.50;75.90;;;;;;5043703;28;19909;-68
2023/09/12 11:40:22;;;;;;;;;;;26.00;75.80;;;;;;5044846;28;19974;-68
2023/09/12 11:42:49;;;;;;;;;;;26.30;75.10;;;;;;5035108;28;19913;-68
2023/09/12 11:45:17;;;;;;;;;;;26.70;74.70;;;;;;5034627;28;20402;-68
2023/09/12 11:47:43;;;;;;;;;;;27.00;74.70;;;;;;5043343;28;19923;-68
2023/09/12 11:50:27;;;;;;;;;;;27.40;74.40;;;;;;5042776;28;19966;-69
2023/09/12 11:53:03;;;;;;;;;;;27.70;74.00;;;;;;5049212;28;19913;-68
2023/09/12 11:55:30;;;;;;;;;;;27.80;73.30;;;;;;5035106;28;19928;-74
2023/09/12 11:57:56;;;;;;;;;;;28.00;72.90;;;;;;5037318;28;19920;-73
2023/09/12 12:00:22;;;;;;;;;;;28.00;72.80;;;;;;5034643;28;20375;-73
2023/09/12 12:02:47;;;;;;;;;;;28.10;73.00;;;;;;5051766;28;19916;-73
2023/09/12 12:05:13;;;;;;;;;;;28.30;73.40;;;;;;5054265;28;20364;-73
2023/09/12 12:07:38;;;;;;;;;;;28.50;73.40;;;;;;5043853;28;20292;-73
2023/09/12 12:10:04;;;;;;;;;;;28.60;73.10;;;;;;5053745;28;19925;-72
2023/09/12 12:12:30;;;;;;;;;;;28.70;72.70;;;;;;5053471;28;19919;-72
2023/09/12 12:14:55;;;;;;;;;;;28.70;72.40;;;;;;5047064;28;19913;-73
2023/09/12 12:17:21;;;;;;;;;;;28.80;73.20;;;;;;5037522;28;19939;-73
2023/09/12 12:19:46;;;;;;;;;;;29.00;73.20;;;;;;5053500;28;19920;-73
2023/09/12 12:22:12;;;;;;;;;;;29.10;73.10;;;;;;5045694;28;20425;-72
2023/09/12 12:24:38;;;;;;;;;;;29.30;72.80;;;;;;5031680;28;20383;-72
2023/09/12 12:27:04;;;;;;;;;;;29.50;72.70;;;;;;5036629;28;19925;-69
2023/09/12 12:29:30;;;;;;;;;;;29.70;72.90;;;;;;5043194;28;19913;-72
2023/09/12 12:31:59;;;;;;;;;;;29.80;72.00;;;;;;5039950;28;19945;-71
2023/09/12 12:34:25;;;;;;;;;;;29.80;72.20;;;;;;5036333;28;19913;-70
2023/09/12 12:36:50;;;;;;;;;;;29.80;71.70;;;;;;5039266;28;20400;-69
2023/09/12 12:39:16;;;;;;;;;;;29.80;71.90;;;;;;5033332;28;20388;-70
2023/09/12 12:41:42;;;;;;;;;;;30.10;72.50;;;;;;5034487;28;20296;-71
2023/09/12 12:44:07;;;;;;;;;;;30.40;72.50;;;;;;5033784;28;19920;-71
2023/09/12 12:46:33;;;;;;;;;;;30.60;72.30;;;;;;5046058;28;19928;-70
2023/09/12 12:48:59;;;;;;;;;;;30.80;72.50;;;;;;5032171;28;19920;-70
2023/09/12 12:51:24;;;;;;;;;;;31.00;70.80;;;;;;5040869;28;19913;-69
2023/09/12 12:53:51;;;;;;;;;;;31.00;70.90;;;;;;5050544;28;19958;-69
2023/09/12 12:56:18;;;;;;;;;;;31.10;70.80;;;;;;5039468;28;20380;-70
2023/09/12 12:58:47;;;;;;;;;;;31.20;70.20;;;;;;5031385;28;19971;-70
2023/09/12 13:01:13;;;;;;;;;;;31.20;70.80;;;;;;5044586;28;19978;-71
2023/09/12 13:03:39;;;;;;;;;;;31.20;70.90;;;;;;5055143;28;20377;-67
2023/09/12 13:06:06;;;;;;;;;;;31.30;71.10;;;;;;5031195;28;19931;-67
2023/09/12 13:08:34;;;;;;;;;;;31.40;71.10;;;;;;5028777;28;20372;-67
2023/09/12 13:11:00;;;;;;;;;;;31.40;70.30;;;;;;5032359;28;19944;-67
2023/09/12 13:13:26;;;;;;;;;;;31.30;70.20;;;;;;5052228;28;19913;-66
2023/09/12 13:15:52;;;;;;;;;;;31.20;69.90;;;;;;5044718;28;19986;-67
2023/09/12 13:18:18;;;;;;;;;;;31.10;70.40;;;;;;5032221;28;19956;-67
2023/09/12 13:20:43;;;;;;;;;;;31.10;70.60;;;;;;5031891;28;19936;-68
2023/09/12 13:23:09;;;;;;;;;;;31.00;70.20;;;;;;5038314;28;19920;-66
2023/09/12 13:25:34;;;;;;;;;;;30.90;70.60;;;;;;5035315;28;19913;-67
2023/09/12 13:27:59;;;;;;;;;;;30.90;71.10;;;;;;5035146;28;19921;-66
2023/09/12 13:30:25;;;;;;;;;;;31.00;71.40;;;;;;5036572;28;20297;-66
2023/09/12 13:32:50;;;;;;;;;;;31.10;71.20;;;;;;5043227;28;19909;-66
2023/09/12 13:35:16;;;;;;;;;;;31.10;70.40;;;;;;5031635;28;19913;-66
2023/09/12 13:37:42;;;;;;;;;;;30.90;69.80;;;;;;5034540;28;19927;-66
2023/09/12 13:40:08;;;;;;;;;;;30.70;70.60;;;;;;5031351;28;19917;-66
2023/09/12 13:42:34;;;;;;;;;;;30.60;71.50;;;;;;5039143;28;20403;-68
2023/09/12 13:44:59;;;;;;;;;;;30.50;71.60;;;;;;5030524;28;19917;-67
2023/09/12 13:47:25;;;;;;;;;;;30.40;71.90;;;;;;5035140;28;19928;-68
2023/09/12 13:49:54;;;;;;;;;;;30.30;71.60;;;;;;5040785;28;19967;-67
2023/09/12 13:52:22;;;;;;;;;;;30.20;71.40;;;;;;5037713;28;19935;-66
2023/09/12 13:54:48;;;;;;;;;;;30.00;71.80;;;;;;5031495;28;19920;-66
2023/09/12 13:57:13;;;;;;;;;;;29.90;72.10;;;;;;5033816;28;20039;-67
2023/09/12 13:59:39;;;;;;;;;;;29.80;71.20;;;;;;5038918;28;19940;-66
2023/09/12 14:02:04;;;;;;;;;;;29.50;71.50;;;;;;5041531;28;19917;-66
2023/09/12 14:04:30;;;;;;;;;;;29.40;71.80;;;;;;5049807;28;20501;-66
2023/09/12 14:06:55;;;;;;;;;;;29.30;72.00;;;;;;5037054;28;19928;-67
2023/09/12 14:09:21;;;;;;;;;;;29.30;72.70;;;;;;5036836;28;19917;-66
2023/09/12 14:11:47;;;;;;;;;;;29.30;72.80;;;;;;5038790;28;20418;-66